100LL.CA
Aviation Fuel Pricing for Canadians
Please upgrade your browser - Tested with IE9, FireFox, Chrome, Safari

Fuel Airports Other Help
Prices Economy Info List METAR/TAF Kneeboard Help

Reference Airport: DEASE LAKE, BC
N 58 25 20  W 130 01 53
Provinces to show:

CYDL DEASE LAKE, BC
WEATHER
METARCYDL 230400Z AUTO 21010KT 9SM FEW039 OVC055 00/M03 A2975 RMK SLP111
OTHER SITES

FlightAware

FltPlan

Google Maps

SkyVector
FUEL
FBO 100LL
member
100LL
public
JETA MOGAS
Opr (2023-10-02)2.8672.800
  Note: https://www.deaseairport.ca/aiport-services
Canada Flight Supplement - CYDL
(opens in new tab/window)


Please Send Updates!

Desktop Version ]  [ Mobile Version ]  [ Disclaimer ]